Time;durP1;ratioP1;P1;durP2;ratioP2;P2;SDS_P1;SDS_P2;PMS_P1;PMS_P2;Temp;Humidity;BMP_temperature;BMP_pressure;BME280_temperature;BME280_humidity;BME280_pressure;Samples;Min_cycle;Max_cycle;Signal;HPM_P1;HPM_P2
2023/12/01 00:17:49;;;;;;;7.68;4.60;;;;;;;;;;4976840;28;20144;-60
2023/12/01 00:20:23;;;;;;;7.07;4.15;;;;;;;;;;4977853;28;20509;-59
2023/12/01 00:22:51;;;;;;;8.88;4.53;;;;;;;;;;4978613;28;20884;-59
2023/12/01 00:25:19;;;;;;;6.82;4.22;;;;;;;;;;4979085;28;20050;-57
2023/12/01 00:27:53;;;;;;;6.57;4.50;;;;;;;;;;4980752;28;20062;-59
2023/12/01 00:30:20;;;;;;;8.15;4.63;;;;;;;;;;4978547;28;20411;-53
2023/12/01 00:32:54;;;;;;;7.78;3.95;;;;;;;;;;4976714;28;20116;-53
2023/12/01 00:35:42;;;;;;;7.20;4.40;;;;;;;;;;4977447;28;20050;-52
2023/12/01 00:38:35;;;;;;;8.27;4.88;;;;;;;;;;4981659;28;20768;-53
2023/12/01 00:41:29;;;;;;;8.55;4.68;;;;;;;;;;4981143;28;20301;-54
2023/12/01 00:44:16;;;;;;;8.02;4.38;;;;;;;;;;4983649;28;20470;-59
2023/12/01 00:47:10;;;;;;;6.55;4.53;;;;;;;;;;4974722;28;20711;-61
2023/12/01 00:49:57;;;;;;;6.55;4.25;;;;;;;;;;4978738;28;20047;-60
2023/12/01 00:52:51;;;;;;;8.10;5.00;;;;;;;;;;4981921;28;20482;-60
2023/12/01 00:55:38;;;;;;;8.93;4.10;;;;;;;;;;4982929;28;20547;-60
2023/12/01 00:58:32;;;;;;;8.30;5.25;;;;;;;;;;4978656;28;20058;-67
2023/12/01 01:01:19;;;;;;;7.80;3.97;;;;;;;;;;4978920;28;20674;-67
2023/12/01 01:04:13;;;;;;;6.90;4.15;;;;;;;;;;4972395;28;20061;-66
2023/12/01 01:07:00;;;;;;;6.53;4.22;;;;;;;;;;4978865;28;20620;-67
2023/12/01 01:09:54;;;;;;;6.75;4.18;;;;;;;;;;4980342;28;20125;-67
2023/12/01 01:12:41;;;;;;;7.07;4.22;;;;;;;;;;4983149;28;20058;-55
2023/12/01 01:15:35;;;;;;;6.20;4.05;;;;;;;;;;4980816;28;20062;-54
2023/12/01 01:18:28;;;;;;;5.32;3.90;;;;;;;;;;4978295;28;20504;-54
2023/12/01 01:21:23;;;;;;;5.68;4.05;;;;;;;;;;4977787;28;20073;-55
2023/12/01 01:24:09;;;;;;;7.97;4.80;;;;;;;;;;4978565;28;20834;-58
2023/12/01 01:27:03;;;;;;;6.85;4.25;;;;;;;;;;4975295;28;20059;-68
2023/12/01 01:29:51;;;;;;;7.78;4.60;;;;;;;;;;4980266;28;20149;-68
2023/12/01 01:32:44;;;;;;;7.60;4.18;;;;;;;;;;4979174;28;20494;-68
2023/12/01 01:35:31;;;;;;;7.05;4.25;;;;;;;;;;4977166;28;20054;-68
2023/12/01 01:38:25;;;;;;;7.38;4.03;;;;;;;;;;4980664;28;20054;-67
2023/12/01 01:41:12;;;;;;;8.80;4.28;;;;;;;;;;4975727;28;20062;-59
2023/12/01 01:44:06;;;;;;;6.28;4.28;;;;;;;;;;4976067;28;20054;-60
2023/12/01 01:46:54;;;;;;;10.18;4.38;;;;;;;;;;4972447;28;20510;-59
2023/12/01 01:49:48;;;;;;;7.05;4.43;;;;;;;;;;4979549;28;20996;-59
2023/12/01 01:52:36;;;;;;;7.32;4.07;;;;;;;;;;4977531;28;20057;-60
2023/12/01 01:55:30;;;;;;;5.53;3.40;;;;;;;;;;4977204;28;20065;-59
2023/12/01 01:58:17;;;;;;;6.30;4.30;;;;;;;;;;4979861;28;20164;-59
2023/12/01 02:01:11;;;;;;;6.80;4.03;;;;;;;;;;4978006;28;20536;-59
2023/12/01 02:03:58;;;;;;;8.02;4.30;;;;;;;;;;4976156;28;20046;-58
2023/12/01 02:06:53;;;;;;;6.43;3.78;;;;;;;;;;4976687;28;20054;-58
2023/12/01 02:09:39;;;;;;;6.55;3.95;;;;;;;;;;4977534;28;20157;-60
2023/12/01 02:12:33;;;;;;;6.40;4.25;;;;;;;;;;4979750;28;20070;-60
2023/12/01 02:15:20;;;;;;;6.07;3.95;;;;;;;;;;4976576;28;20719;-60
2023/12/01 02:18:27;;;;;;;6.28;3.97;;;;;;;;;;4974849;28;20061;-60
2023/12/01 02:21:14;;;;;;;6.00;3.72;;;;;;;;;;4975878;28;20066;-67
2023/12/01 02:24:09;;;;;;;6.45;3.75;;;;;;;;;;4972754;28;20128;-59
2023/12/01 02:26:55;;;;;;;5.28;3.85;;;;;;;;;;4976805;28;20050;-61
2023/12/01 02:29:49;;;;;;;6.03;4.07;;;;;;;;;;4974385;28;20062;-59
2023/12/01 02:32:36;;;;;;;7.20;4.38;;;;;;;;;;4975269;28;20513;-59
2023/12/01 02:35:30;;;;;;;6.63;4.55;;;;;;;;;;4973622;28;20054;-59
2023/12/01 02:38:17;;;;;;;7.35;4.75;;;;;;;;;;4981673;28;20104;-60
2023/12/01 02:41:12;;;;;;;6.25;4.00;;;;;;;;;;4979196;28;20101;-59
2023/12/01 02:43:58;;;;;;;6.95;3.70;;;;;;;;;;4976186;28;20797;-59
2023/12/01 02:46:52;;;;;;;6.72;3.85;;;;;;;;;;4976836;28;20416;-59
2023/12/01 02:49:39;;;;;;;7.32;4.35;;;;;;;;;;4978856;28;20050;-60
2023/12/01 02:52:33;;;;;;;7.13;4.22;;;;;;;;;;4976024;28;20766;-59
2023/12/01 02:55:20;;;;;;;7.78;4.30;;;;;;;;;;4980116;28;20066;-60
2023/12/01 02:58:14;;;;;;;6.28;4.13;;;;;;;;;;4978266;28;20093;-60
2023/12/01 03:01:08;;;;;;;7.18;4.35;;;;;;;;;;4975730;28;20062;-59
2023/12/01 03:04:02;;;;;;;6.30;4.20;;;;;;;;;;4978798;28;20050;-59
2023/12/01 03:06:56;;;;;;;7.63;4.63;;;;;;;;;;4975987;28;20046;-52
2023/12/01 03:09:43;;;;;;;7.00;4.68;;;;;;;;;;4973658;28;20065;-50
2023/12/01 03:12:38;;;;;;;5.75;3.58;;;;;;;;;;4974128;28;20054;-51
2023/12/01 03:15:25;;;;;;;8.73;3.38;;;;;;;;;;4981011;28;20050;-49
2023/12/01 03:18:25;;;;;;;6.60;3.88;;;;;;;;;;4973513;28;20551;-53
2023/12/01 03:21:13;;;;;;;7.05;4.22;;;;;;;;;;4977180;28;20141;-50
2023/12/01 03:24:10;;;;;;;6.47;4.50;;;;;;;;;;4973585;28;20054;-48
2023/12/01 03:26:57;;;;;;;6.63;3.95;;;;;;;;;;4975021;28;20156;-50
2023/12/01 03:29:52;;;;;;;6.57;4.25;;;;;;;;;;4971354;28;20125;-47
2023/12/01 03:32:38;;;;;;;6.78;4.50;;;;;;;;;;4975572;28;20062;-47
2023/12/01 03:35:32;;;;;;;10.07;4.55;;;;;;;;;;4977168;28;20459;-59
2023/12/01 03:38:19;;;;;;;6.75;4.30;;;;;;;;;;4981390;28;20050;-58
2023/12/01 03:41:13;;;;;;;8.02;3.80;;;;;;;;;;4978530;28;20802;-58
2023/12/01 03:44:00;;;;;;;8.32;4.88;;;;;;;;;;4979779;28;20473;-58
2023/12/01 03:46:54;;;;;;;6.80;4.25;;;;;;;;;;4978870;28;20105;-67
2023/12/01 03:49:41;;;;;;;6.05;4.07;;;;;;;;;;4982571;28;20057;-57
2023/12/01 03:52:35;;;;;;;7.05;3.92;;;;;;;;;;4980886;28;20458;-58
2023/12/01 03:55:22;;;;;;;6.15;4.20;;;;;;;;;;4982710;28;20054;-58
2023/12/01 03:58:17;;;;;;;7.30;4.53;;;;;;;;;;4982446;28;20497;-58
2023/12/01 04:01:05;;;;;;;6.93;3.92;;;;;;;;;;4980265;28;20059;-59
2023/12/01 04:03:57;;;;;;;6.22;4.00;;;;;;;;;;4981435;28;20078;-58
2023/12/01 04:06:44;;;;;;;7.10;3.75;;;;;;;;;;4979128;28;20086;-59
2023/12/01 04:09:38;;;;;;;9.02;4.50;;;;;;;;;;4980778;28;20669;-58
2023/12/01 04:12:25;;;;;;;6.90;4.20;;;;;;;;;;4981486;28;20054;-58
2023/12/01 04:15:20;;;;;;;6.38;4.15;;;;;;;;;;4974606;28;20528;-59
2023/12/01 04:18:14;;;;;;;7.38;4.07;;;;;;;;;;4975373;28;20629;-60
2023/12/01 04:21:09;;;;;;;5.55;3.72;;;;;;;;;;4979068;28;20096;-60
2023/12/01 04:23:55;;;;;;;6.07;3.85;;;;;;;;;;4977968;28;20081;-60
2023/12/01 04:26:49;;;;;;;5.57;3.53;;;;;;;;;;4981565;28;20457;-62
2023/12/01 04:29:38;;;;;;;7.90;4.00;;;;;;;;;;4977875;28;20108;-60
2023/12/01 04:32:30;;;;;;;6.30;4.00;;;;;;;;;;4981225;28;20054;-60
2023/12/01 04:35:26;;;;;;;6.57;4.32;;;;;;;;;;4981583;28;20066;-60
2023/12/01 04:38:20;;;;;;;8.77;4.60;;;;;;;;;;4978957;28;20128;-60
2023/12/01 04:41:09;;;;;;;7.63;4.35;;;;;;;;;;4980205;28;20054;-60
2023/12/01 04:44:01;;;;;;;8.18;4.15;;;;;;;;;;4980041;28;20109;-60
2023/12/01 04:46:48;;;;;;;7.20;4.63;;;;;;;;;;4972395;28;20057;-56
2023/12/01 04:49:42;;;;;;;9.70;3.95;;;;;;;;;;4979180;28;20502;-55
2023/12/01 04:52:36;;;;;;;7.05;4.15;;;;;;;;;;4976171;28;20059;-55
2023/12/01 04:55:30;;;;;;;5.57;2.85;;;;;;;;;;4979295;28;20116;-53
2023/12/01 04:58:18;;;;;;;8.38;4.13;;;;;;;;;;4977110;28;20050;-50
2023/12/01 05:01:12;;;;;;;8.45;4.20;;;;;;;;;;4982603;28;20510;-48
2023/12/01 05:03:59;;;;;;;6.63;4.28;;;;;;;;;;4977851;28;20406;-47
2023/12/01 05:06:53;;;;;;;7.03;4.25;;;;;;;;;;4980468;28;20046;-48
2023/12/01 05:09:41;;;;;;;10.57;4.20;;;;;;;;;;4984577;28;20077;-61
2023/12/01 05:12:34;;;;;;;7.03;4.05;;;;;;;;;;4982276;28;20050;-60
2023/12/01 05:15:24;;;;;;;8.32;4.43;;;;;;;;;;4978487;28;20054;-59
2023/12/01 05:18:23;;;;;;;5.57;3.58;;;;;;;;;;4978002;28;21500;-59
2023/12/01 05:21:11;;;;;;;7.07;4.40;;;;;;;;;;4970399;28;20069;-59
2023/12/01 05:24:05;;;;;;;7.00;4.22;;;;;;;;;;4973547;28;20055;-63
2023/12/01 05:26:52;;;;;;;7.63;4.53;;;;;;;;;;4973558;28;20062;-59
2023/12/01 05:29:46;;;;;;;7.65;4.40;;;;;;;;;;4980718;28;20816;-60
2023/12/01 05:32:33;;;;;;;7.88;4.22;;;;;;;;;;4980002;28;20057;-59
2023/12/01 05:35:27;;;;;;;7.35;4.13;;;;;;;;;;4982164;28;20422;-59
2023/12/01 05:38:16;;;;;;;6.63;3.80;;;;;;;;;;4973799;28;20050;-54
2023/12/01 05:41:09;;;;;;;7.82;3.85;;;;;;;;;;4978296;28;20380;-67
2023/12/01 05:43:56;;;;;;;5.07;3.80;;;;;;;;;;4968341;28;20089;-68
2023/12/01 05:46:50;;;;;;;5.82;3.65;;;;;;;;;;4975445;28;20057;-68
2023/12/01 05:49:37;;;;;;;4.85;3.40;;;;;;;;;;4977753;28;20489;-67
2023/12/01 05:52:31;;;;;;;8.05;3.83;;;;;;;;;;4977128;28;20625;-67
2023/12/01 05:55:26;;;;;;;5.93;3.90;;;;;;;;;;4979066;28;20054;-67
2023/12/01 05:58:21;;;;;;;4.22;3.00;;;;;;;;;;4978034;28;20097;-56
2023/12/01 06:01:07;;;;;;;4.90;3.53;;;;;;;;;;4977313;28;20486;-54
2023/12/01 06:04:02;;;;;;;7.28;4.00;;;;;;;;;;4979596;28;20728;-53
2023/12/01 06:06:48;;;;;;;7.65;3.78;;;;;;;;;;4978311;28;20169;-69
2023/12/01 06:09:42;;;;;;;4.88;3.63;;;;;;;;;;4978440;28;20108;-53
2023/12/01 06:12:39;;;;;;;6.05;3.92;;;;;;;;;;4977615;28;20042;-51
2023/12/01 06:15:29;;;;;;;5.32;3.50;;;;;;;;;;4976633;28;23011;-51
2023/12/01 06:18:29;;;;;;;5.93;3.60;;;;;;;;;;4977601;28;20449;-56
2023/12/01 06:21:14;;;;;;;6.85;3.72;;;;;;;;;;4979686;28;20064;-55
2023/12/01 06:24:08;;;;;;;6.90;4.20;;;;;;;;;;4980375;28;20058;-55
2023/12/01 06:26:56;;;;;;;6.55;3.95;;;;;;;;;;4976331;28;20054;-60
2023/12/01 06:29:51;;;;;;;7.30;4.13;;;;;;;;;;4979081;28;20046;-60
2023/12/01 06:32:40;;;;;;;6.15;3.88;;;;;;;;;;4981152;28;20525;-61
2023/12/01 06:35:33;;;;;;;8.10;4.30;;;;;;;;;;4978085;28;20440;-53
2023/12/01 06:38:20;;;;;;;4.18;2.45;;;;;;;;;;4976929;28;20653;-59
2023/12/01 06:41:14;;;;;;;9.90;5.18;;;;;;;;;;4978664;28;20214;-59
2023/12/01 06:44:01;;;;;;;10.73;3.95;;;;;;;;;;4980172;28;20051;-59
2023/12/01 06:46:55;;;;;;;11.40;5.03;;;;;;;;;;4976726;28;20748;-59
2023/12/01 06:49:42;;;;;;;8.80;4.70;;;;;;;;;;4983127;28;20051;-59
2023/12/01 06:52:36;;;;;;;7.60;3.97;;;;;;;;;;4978020;28;20061;-59
2023/12/01 06:55:23;;;;;;;8.17;3.33;;;;;;;;;;4979012;28;20502;-58
2023/12/01 06:58:23;;;;;;;7.00;4.20;;;;;;;;;;4976711;28;20085;-59
2023/12/01 07:01:18;;;;;;;9.50;4.70;;;;;;;;;;4978135;28;20526;-59
2023/12/01 07:04:14;;;;;;;9.25;4.68;;;;;;;;;;4975429;28;20149;-54
2023/12/01 07:07:00;;;;;;;8.57;4.78;;;;;;;;;;4977274;28;20054;-58
2023/12/01 07:09:53;;;;;;;6.30;3.85;;;;;;;;;;4979517;28;20062;-58
2023/12/01 07:12:40;;;;;;;10.63;5.15;;;;;;;;;;4981176;28;20768;-59
2023/12/01 07:15:34;;;;;;;8.55;4.63;;;;;;;;;;4978811;28;20050;-58
2023/12/01 07:18:28;;;;;;;10.65;5.28;;;;;;;;;;4983910;28;20053;-58
2023/12/01 07:21:22;;;;;;;14.00;6.80;;;;;;;;;;4981684;28;20426;-58
2023/12/01 07:24:09;;;;;;;12.63;6.57;;;;;;;;;;4982330;28;20054;-60
2023/12/01 07:27:04;;;;;;;13.05;6.20;;;;;;;;;;4983091;28;20058;-58
2023/12/01 07:29:51;;;;;;;14.32;6.13;;;;;;;;;;4983168;28;20057;-57
2023/12/01 07:32:45;;;;;;;14.52;5.68;;;;;;;;;;4982153;28;20053;-59
2023/12/01 07:35:32;;;;;;;14.30;6.35;;;;;;;;;;4984364;28;20125;-57
2023/12/01 07:38:26;;;;;;;12.35;5.57;;;;;;;;;;4982433;28;20410;-53
2023/12/01 07:41:14;;;;;;;10.02;5.28;;;;;;;;;;4982783;28;20064;-58
2023/12/01 07:44:07;;;;;;;8.95;4.95;;;;;;;;;;4982943;28;20054;-57
2023/12/01 07:46:54;;;;;;;10.20;5.13;;;;;;;;;;4983527;28;20062;-57
2023/12/01 07:49:48;;;;;;;7.63;4.63;;;;;;;;;;4982720;28;20121;-60
2023/12/01 07:52:35;;;;;;;9.68;4.80;;;;;;;;;;4979030;28;20061;-60
2023/12/01 07:55:29;;;;;;;9.18;4.68;;;;;;;;;;4980578;28;20054;-60
2023/12/01 07:58:17;;;;;;;8.32;4.55;;;;;;;;;;4978106;28;20082;-60
2023/12/01 08:01:14;;;;;;;10.07;4.65;;;;;;;;;;4980571;28;20101;-59
2023/12/01 08:03:57;;;;;;;7.72;4.80;;;;;;;;;;4979245;28;20495;-60
2023/12/01 08:06:51;;;;;;;7.63;4.22;;;;;;;;;;4979213;28;20120;-59
2023/12/01 08:09:45;;;;;;;6.35;3.97;;;;;;;;;;4982651;28;20057;-59
2023/12/01 08:12:33;;;;;;;6.93;3.80;;;;;;;;;;4980402;28;20061;-60
2023/12/01 08:15:28;;;;;;;7.28;4.50;;;;;;;;;;4981974;28;20054;-59
2023/12/01 08:18:21;;;;;;;9.93;4.63;;;;;;;;;;4983552;28;20058;-60
2023/12/01 08:21:22;;;;;;;7.65;3.78;;;;;;;;;;4981973;28;20058;-60
2023/12/01 08:24:10;;;;;;;5.90;4.18;;;;;;;;;;4980273;28;20058;-60
2023/12/01 08:27:10;;;;;;;7.70;4.38;;;;;;;;;;4982965;28;20055;-60
2023/12/01 08:29:55;;;;;;;6.13;3.90;;;;;;;;;;4978387;28;20090;-59
2023/12/01 08:32:53;;;;;;;7.35;4.45;;;;;;;;;;4982287;28;20046;-65
2023/12/01 08:35:40;;;;;;;8.10;4.68;;;;;;;;;;4983143;28;20482;-67
2023/12/01 08:38:34;;;;;;;9.65;4.85;;;;;;;;;;4982427;28;20058;-68
2023/12/01 08:41:24;;;;;;;10.48;4.72;;;;;;;;;;4984390;28;20413;-67
2023/12/01 08:44:18;;;;;;;9.07;3.30;;;;;;;;;;4982086;28;20055;-68
2023/12/01 08:47:13;;;;;;;6.40;4.03;;;;;;;;;;4981867;28;20046;-67
2023/12/01 08:50:00;;;;;;;7.03;3.85;;;;;;;;;;4982623;28;20056;-68
2023/12/01 08:52:53;;;;;;;6.63;3.67;;;;;;;;;;4981172;28;20714;-70
2023/12/01 08:55:40;;;;;;;5.75;4.05;;;;;;;;;;4978687;28;20070;-68
2023/12/01 08:58:34;;;;;;;9.43;5.53;;;;;;;;;;4980201;28;20061;-55
2023/12/01 09:01:21;;;;;;;5.72;3.83;;;;;;;;;;4978186;28;20058;-61
2023/12/01 09:04:15;;;;;;;6.78;4.18;;;;;;;;;;4980488;28;20564;-61
2023/12/01 09:07:02;;;;;;;7.38;4.07;;;;;;;;;;4979644;28;23577;-61
2023/12/01 09:09:58;;;;;;;7.57;3.90;;;;;;;;;;4978914;28;20058;-61
2023/12/01 09:12:45;;;;;;;6.88;4.10;;;;;;;;;;4979087;28;20078;-61
2023/12/01 09:15:38;;;;;;;7.57;4.00;;;;;;;;;;4979060;28;20609;-60
2023/12/01 09:18:39;;;;;;;6.05;3.85;;;;;;;;;;4982428;28;20066;-60
2023/12/01 09:21:34;;;;;;;5.75;4.18;;;;;;;;;;4981965;28;20513;-60
2023/12/01 09:24:28;;;;;;;5.85;3.85;;;;;;;;;;4980638;28;20050;-60
2023/12/01 09:27:15;;;;;;;6.25;4.25;;;;;;;;;;4979646;28;20054;-61
2023/12/01 09:30:13;;;;;;;7.18;4.30;;;;;;;;;;4979500;28;20050;-67
2023/12/01 09:32:57;;;;;;;6.35;3.90;;;;;;;;;;4980474;28;20434;-68
2023/12/01 09:35:51;;;;;;;7.45;4.28;;;;;;;;;;4979356;28;20066;-68
2023/12/01 09:38:38;;;;;;;6.70;4.00;;;;;;;;;;4977102;28;20054;-68
2023/12/01 09:41:35;;;;;;;6.55;3.92;;;;;;;;;;4980874;28;20517;-67
2023/12/01 09:44:21;;;;;;;7.15;4.30;;;;;;;;;;4980135;28;20038;-61
2023/12/01 09:47:17;;;;;;;8.23;4.25;;;;;;;;;;4979681;28;21738;-60
2023/12/01 09:50:14;;;;;;;6.55;3.63;;;;;;;;;;4979661;28;21019;-61
2023/12/01 09:52:58;;;;;;;5.53;3.83;;;;;;;;;;4980077;28;20061;-61
2023/12/01 09:55:52;;;;;;;7.53;4.40;;;;;;;;;;4979809;28;20517;-58
2023/12/01 09:58:39;;;;;;;6.82;4.05;;;;;;;;;;4976767;28;20509;-60
2023/12/01 10:01:47;;;;;;;6.43;4.13;;;;;;;;;;4979216;28;20064;-60
2023/12/01 10:04:40;;;;;;;9.00;4.47;;;;;;;;;;4977152;28;20464;-60
2023/12/01 10:07:35;;;;;;;7.97;4.43;;;;;;;;;;4979346;28;20058;-60
2023/12/01 10:10:29;;;;;;;8.07;4.28;;;;;;;;;;4977701;28;20653;-60
2023/12/01 10:13:16;;;;;;;11.30;4.97;;;;;;;;;;4980057;28;20112;-51
2023/12/01 10:16:10;;;;;;;8.40;4.32;;;;;;;;;;4977135;28;20124;-47
2023/12/01 10:19:08;;;;;;;9.15;4.75;;;;;;;;;;4975805;28;20058;-51
2023/12/01 10:22:05;;;;;;;10.10;4.22;;;;;;;;;;4976424;28;20050;-47
2023/12/01 10:24:54;;;;;;;4.03;2.75;;;;;;;;;;4978791;28;20058;-60
2023/12/01 10:27:56;;;;;;;5.45;3.90;;;;;;;;;;4978088;28;20832;-56
2023/12/01 10:30:52;;;;;;;7.25;3.90;;;;;;;;;;4979927;28;20054;-55
2023/12/01 10:33:48;;;;;;;6.57;3.53;;;;;;;;;;4978160;28;20050;-55
2023/12/01 10:36:34;;;;;;;5.05;3.42;;;;;;;;;;4978591;28;20059;-52
2023/12/01 10:39:29;;;;;;;7.03;4.20;;;;;;;;;;4978533;28;20066;-54
2023/12/01 10:42:16;;;;;;;8.30;3.72;;;;;;;;;;4980618;28;20063;-67
2023/12/01 10:45:11;;;;;;;6.15;3.88;;;;;;;;;;4972818;28;20820;-67
2023/12/01 10:47:59;;;;;;;6.28;3.47;;;;;;;;;;4977111;28;20217;-66
2023/12/01 10:50:53;;;;;;;6.85;4.07;;;;;;;;;;4977649;28;20453;-68
2023/12/01 10:53:40;;;;;;;11.48;4.35;;;;;;;;;;4978392;28;20046;-60
2023/12/01 10:56:35;;;;;;;8.02;4.05;;;;;;;;;;4975611;28;20053;-60
2023/12/01 10:59:24;;;;;;;8.25;4.65;;;;;;;;;;4976129;28;20050;-60
2023/12/01 11:02:21;;;;;;;8.30;4.40;;;;;;;;;;4977765;28;20042;-60
2023/12/01 11:05:12;;;;;;;7.65;3.72;;;;;;;;;;4977350;28;20280;-60
2023/12/01 11:08:24;;;;;;;6.75;4.20;;;;;;;;;;4975652;28;20521;-60
2023/12/01 11:11:30;;;;;;;7.40;4.47;;;;;;;;;;4978140;28;20058;-59
2023/12/01 11:14:26;;;;;;;7.85;4.03;;;;;;;;;;4980762;28;20473;-59
2023/12/01 11:17:16;;;;;;;4.00;3.07;;;;;;;;;;4978230;28;20051;-59
2023/12/01 11:20:33;;;;;;;5.90;3.97;;;;;;;;;;4978938;28;20308;-59
2023/12/01 11:23:20;;;;;;;5.20;3.42;;;;;;;;;;4977304;28;20061;-61
2023/12/01 11:26:16;;;;;;;7.03;4.47;;;;;;;;;;4974434;28;20418;-59
2023/12/01 11:29:09;;;;;;;7.45;4.30;;;;;;;;;;4976182;28;20671;-59
2023/12/01 11:31:58;;;;;;;6.13;3.92;;;;;;;;;;4978496;28;20564;-59
2023/12/01 11:35:03;;;;;;;7.22;3.65;;;;;;;;;;4976814;28;20505;-59
2023/12/01 11:38:03;;;;;;;8.55;3.95;;;;;;;;;;4973724;28;20053;-58
2023/12/01 11:40:48;;;;;;;7.78;4.45;;;;;;;;;;4977849;28;20050;-58
2023/12/01 11:44:02;;;;;;;8.60;4.50;;;;;;;;;;4976153;28;20124;-57
2023/12/01 11:46:55;;;;;;;6.70;3.63;;;;;;;;;;4977429;28;20058;-56
2023/12/01 11:49:43;;;;;;;8.52;4.05;;;;;;;;;;4975829;28;20077;-61
2023/12/01 11:52:30;;;;;;;6.55;4.07;;;;;;;;;;4977645;28;20054;-59
2023/12/01 11:55:24;;;;;;;7.10;4.45;;;;;;;;;;4972647;28;20047;-59
2023/12/01 11:58:17;;;;;;;6.90;4.00;;;;;;;;;;4979315;28;20050;-58
2023/12/01 12:01:09;;;;;;;7.13;4.22;;;;;;;;;;4980243;28;20064;-56
2023/12/01 12:04:04;;;;;;;5.95;4.25;;;;;;;;;;4981513;28;20068;-59
2023/12/01 12:06:51;;;;;;;8.30;4.50;;;;;;;;;;4984720;28;20610;-67
2023/12/01 12:09:45;;;;;;;6.68;4.13;;;;;;;;;;4983253;28;20109;-68
2023/12/01 12:12:32;;;;;;;7.25;4.43;;;;;;;;;;4983985;28;20054;-67
2023/12/01 12:15:26;;;;;;;6.20;3.80;;;;;;;;;;4977441;28;20114;-68
2023/12/01 12:18:24;;;;;;;5.72;3.70;;;;;;;;;;4977869;28;20050;-52
2023/12/01 12:21:14;;;;;;;9.23;4.63;;;;;;;;;;4979731;28;20046;-68
2023/12/01 12:24:02;;;;;;;7.75;4.07;;;;;;;;;;4979886;28;20191;-68
2023/12/01 12:26:56;;;;;;;6.60;4.40;;;;;;;;;;4981822;28;20232;-67
2023/12/01 12:29:43;;;;;;;6.80;4.32;;;;;;;;;;4982680;28;20058;-68
2023/12/01 12:32:37;;;;;;;6.72;3.95;;;;;;;;;;4980369;28;20065;-68
2023/12/01 12:35:25;;;;;;;5.03;3.13;;;;;;;;;;4978303;28;20065;-57
2023/12/01 12:38:19;;;;;;;5.80;3.83;;;;;;;;;;4981776;28;20395;-58
2023/12/01 12:41:27;;;;;;;5.68;3.53;;;;;;;;;;4980797;28;20082;-59
2023/12/01 12:44:14;;;;;;;5.90;3.75;;;;;;;;;;4981849;28;20177;-58
2023/12/01 12:47:11;;;;;;;6.28;3.80;;;;;;;;;;4976511;28;20056;-52
2023/12/01 12:49:58;;;;;;;6.50;4.00;;;;;;;;;;4981827;28;20054;-58
2023/12/01 12:52:52;;;;;;;7.90;4.18;;;;;;;;;;4980128;28;20049;-58
2023/12/01 12:55:39;;;;;;;6.85;4.15;;;;;;;;;;4977294;28;20050;-58
2023/12/01 12:58:33;;;;;;;7.05;4.20;;;;;;;;;;4981676;28;20109;-59
2023/12/01 13:01:21;;;;;;;7.38;3.85;;;;;;;;;;4980667;28;20078;-58
2023/12/01 13:04:15;;;;;;;7.72;3.88;;;;;;;;;;4980079;28;20069;-49
2023/12/01 13:07:02;;;;;;;5.88;3.92;;;;;;;;;;4977287;28;20063;-48
2023/12/01 13:09:56;;;;;;;6.43;3.70;;;;;;;;;;4979647;28;20058;-47
2023/12/01 13:12:43;;;;;;;5.97;3.90;;;;;;;;;;4979975;28;20042;-49
2023/12/01 13:15:37;;;;;;;6.35;3.70;;;;;;;;;;4979565;28;20144;-56
2023/12/01 13:18:38;;;;;;;5.78;3.50;;;;;;;;;;4976503;28;20358;-57
2023/12/01 13:21:35;;;;;;;6.15;3.50;;;;;;;;;;4981668;28;21308;-57
2023/12/01 13:24:23;;;;;;;4.97;3.50;;;;;;;;;;4974995;28;20517;-58
2023/12/01 13:27:16;;;;;;;5.75;3.75;;;;;;;;;;4980142;28;20061;-57
2023/12/01 13:30:10;;;;;;;5.82;3.60;;;;;;;;;;4985182;28;20055;-58
2023/12/01 13:32:58;;;;;;;4.70;3.35;;;;;;;;;;4979012;28;20161;-60
2023/12/01 13:35:52;;;;;;;7.28;3.40;;;;;;;;;;4980074;28;20054;-59
2023/12/01 13:38:39;;;;;;;6.27;3.67;;;;;;;;;;4977600;28;20054;-60
2023/12/01 13:41:33;;;;;;;5.40;3.58;;;;;;;;;;4978079;28;20157;-59
2023/12/01 13:44:27;;;;;;;7.07;3.47;;;;;;;;;;4974680;28;20580;-60
2023/12/01 13:47:14;;;;;;;7.90;4.13;;;;;;;;;;4975153;28;20128;-67
2023/12/01 13:50:08;;;;;;;6.30;4.40;;;;;;;;;;4975124;28;20158;-67
2023/12/01 13:52:55;;;;;;;5.38;3.58;;;;;;;;;;4976430;28;20078;-67
2023/12/01 13:55:49;;;;;;;5.15;3.78;;;;;;;;;;4975693;28;20189;-67
2023/12/01 13:58:40;;;;;;;6.68;3.67;;;;;;;;;;4977886;28;20060;-67
2023/12/01 14:01:33;;;;;;;8.60;4.25;;;;;;;;;;4976221;28;20050;-51
2023/12/01 14:04:20;;;;;;;10.20;3.22;;;;;;;;;;4979041;28;20149;-53
2023/12/01 14:07:14;;;;;;;6.80;4.20;;;;;;;;;;4979406;28;20050;-52
2023/12/01 14:10:03;;;;;;;6.18;3.78;;;;;;;;;;4981674;28;20065;-55
2023/12/01 14:12:55;;;;;;;7.25;4.15;;;;;;;;;;4976220;28;20490;-60
2023/12/01 14:15:42;;;;;;;7.35;4.05;;;;;;;;;;4977945;28;20133;-68
2023/12/01 14:18:43;;;;;;;7.43;4.25;;;;;;;;;;4980050;28;20059;-67
2023/12/01 14:21:30;;;;;;;8.95;4.15;;;;;;;;;;4975577;28;20058;-67
2023/12/01 14:24:24;;;;;;;6.97;4.10;;;;;;;;;;4977372;28;21888;-67
2023/12/01 14:27:12;;;;;;;7.30;4.93;;;;;;;;;;4975340;28;20533;-67
2023/12/01 14:30:06;;;;;;;7.78;3.95;;;;;;;;;;4979892;28;20508;-55
2023/12/01 14:32:55;;;;;;;6.78;4.03;;;;;;;;;;4977640;28;20064;-56
2023/12/01 14:35:47;;;;;;;7.82;4.70;;;;;;;;;;4976990;28;20061;-56
2023/12/01 14:38:34;;;;;;;6.43;4.07;;;;;;;;;;4977527;28;20066;-58
2023/12/01 14:41:28;;;;;;;5.43;3.72;;;;;;;;;;4979255;28;20054;-56
2023/12/01 14:44:16;;;;;;;8.25;4.30;;;;;;;;;;4978657;28;20414;-67
2023/12/01 14:47:11;;;;;;;6.47;3.97;;;;;;;;;;4975476;28;20064;-68
2023/12/01 14:49:58;;;;;;;7.45;4.43;;;;;;;;;;4977994;28;20054;-67
2023/12/01 14:52:51;;;;;;;6.18;3.83;;;;;;;;;;4977988;28;20104;-67
2023/12/01 14:55:38;;;;;;;6.50;3.70;;;;;;;;;;4981167;28;20054;-67
2023/12/01 14:58:37;;;;;;;10.00;4.00;;;;;;;;;;4978584;28;20102;-58
2023/12/01 15:01:19;;;;;;;7.50;3.92;;;;;;;;;;4978928;28;20141;-57
2023/12/01 15:04:13;;;;;;;7.68;4.38;;;;;;;;;;4980561;28;20054;-57
2023/12/01 15:07:00;;;;;;;6.70;3.83;;;;;;;;;;4975645;28;20141;-58
2023/12/01 15:09:54;;;;;;;7.03;4.50;;;;;;;;;;4977132;28;20498;-56
2023/12/01 15:12:41;;;;;;;6.35;3.88;;;;;;;;;;4979014;28;20050;-56
2023/12/01 15:15:35;;;;;;;6.68;3.92;;;;;;;;;;4980467;28;20575;-57
2023/12/01 15:18:22;;;;;;;8.37;4.40;;;;;;;;;;4978733;28;20138;-57
2023/12/01 15:21:24;;;;;;;6.60;4.07;;;;;;;;;;4979459;28;20074;-56
2023/12/01 15:24:10;;;;;;;5.97;4.00;;;;;;;;;;4975948;28;20050;-56
2023/12/01 15:27:03;;;;;;;7.00;3.90;;;;;;;;;;4974628;28;20078;-58
2023/12/01 15:29:51;;;;;;;6.07;4.17;;;;;;;;;;4976656;28;21519;-58
2023/12/01 15:32:51;;;;;;;7.82;4.28;;;;;;;;;;4980022;28;20042;-59
2023/12/01 15:35:39;;;;;;;6.97;4.33;;;;;;;;;;4979929;28;20498;-60
2023/12/01 15:38:32;;;;;;;8.33;5.40;;;;;;;;;;4980292;28;20054;-59
2023/12/01 15:41:20;;;;;;;8.73;4.37;;;;;;;;;;4975718;28;20058;-60
2023/12/01 15:44:13;;;;;;;5.93;4.07;;;;;;;;;;4976903;28;20058;-61
2023/12/01 15:47:00;;;;;;;9.50;4.83;;;;;;;;;;4980162;28;20058;-61
2023/12/01 15:49:54;;;;;;;7.23;4.70;;;;;;;;;;4980714;28;20425;-61
2023/12/01 15:52:41;;;;;;;7.00;4.27;;;;;;;;;;4983985;28;20065;-61
2023/12/01 15:55:35;;;;;;;10.87;4.80;;;;;;;;;;4980053;28;20053;-61
2023/12/01 15:58:22;;;;;;;7.40;4.43;;;;;;;;;;4981957;28;20497;-60
2023/12/01 16:01:16;;;;;;;8.47;5.13;;;;;;;;;;4977850;28;20042;-59
2023/12/01 16:04:10;;;;;;;6.93;4.57;;;;;;;;;;4978197;28;20057;-48
2023/12/01 16:06:57;;;;;;;8.17;5.07;;;;;;;;;;4982083;28;20075;-58
2023/12/01 16:09:51;;;;;;;7.13;4.70;;;;;;;;;;4980787;28;20465;-58
2023/12/01 16:12:45;;;;;;;6.90;4.70;;;;;;;;;;4982822;28;20062;-58
2023/12/01 16:15:32;;;;;;;8.33;4.67;;;;;;;;;;4979062;28;20077;-58
2023/12/01 16:18:39;;;;;;;8.70;4.90;;;;;;;;;;4977402;28;20476;-58
2023/12/01 16:21:34;;;;;;;9.67;4.57;;;;;;;;;;4982130;28;20117;-58
2023/12/01 16:24:27;;;;;;;10.60;5.60;;;;;;;;;;4981534;28;20461;-54
2023/12/01 16:27:14;;;;;;;10.53;5.00;;;;;;;;;;4975535;28;20062;-57
2023/12/01 16:30:08;;;;;;;8.87;4.97;;;;;;;;;;4978070;28;20141;-58
2023/12/01 16:32:55;;;;;;;7.25;4.25;;;;;;;;;;4983220;28;20104;-58
2023/12/01 16:35:52;;;;;;;9.43;5.00;;;;;;;;;;4980192;28;20058;-57
2023/12/01 16:38:59;;;;;;;10.37;4.93;;;;;;;;;;4980668;28;20062;-56
2023/12/01 16:41:46;;;;;;;9.83;5.47;;;;;;;;;;4975777;28;20054;-58
2023/12/01 16:44:40;;;;;;;11.83;5.47;;;;;;;;;;4979975;28;20062;-57
2023/12/01 16:47:28;;;;;;;10.97;5.73;;;;;;;;;;4979689;28;20065;-57
2023/12/01 16:50:21;;;;;;;12.27;6.30;;;;;;;;;;4976226;28;20247;-59
2023/12/01 16:53:09;;;;;;;9.47;5.77;;;;;;;;;;4980531;28;20058;-67
2023/12/01 16:56:03;;;;;;;10.70;6.07;;;;;;;;;;4978831;28;20746;-67
2023/12/01 16:58:50;;;;;;;9.73;5.90;;;;;;;;;;4977231;28;20054;-68
2023/12/01 17:01:44;;;;;;;15.47;7.03;;;;;;;;;;4981835;28;20104;-60
2023/12/01 17:04:31;;;;;;;10.60;6.43;;;;;;;;;;4979156;28;20064;-60
2023/12/01 17:07:25;;;;;;;15.67;7.27;;;;;;;;;;4979242;28;20604;-60
2023/12/01 17:10:19;;;;;;;13.10;6.70;;;;;;;;;;4980949;28;20143;-60
2023/12/01 17:13:06;;;;;;;14.27;6.90;;;;;;;;;;4981491;28;20054;-60
2023/12/01 17:16:00;;;;;;;12.77;6.60;;;;;;;;;;4979587;28;20066;-60
2023/12/01 17:18:47;;;;;;;13.43;6.90;;;;;;;;;;4980516;28;20058;-60
2023/12/01 17:21:48;;;;;;;14.13;7.57;;;;;;;;;;4981037;28;20473;-60